createdAt,value
2017-02-27T00:01:01.063Z,0
2017-02-27T00:02:10.922Z,0
2017-02-27T00:03:20.408Z,0
2017-02-27T00:04:29.890Z,0
2017-02-27T00:05:38.975Z,0
2017-02-27T00:06:48.447Z,0
2017-02-27T00:07:57.144Z,0
2017-02-27T00:09:06.627Z,0
2017-02-27T00:10:16.162Z,0
2017-02-27T00:11:25.256Z,0
2017-02-27T00:12:34.339Z,0
2017-02-27T00:13:44.571Z,0
2017-02-27T00:14:54.070Z,0
2017-02-27T00:16:03.569Z,0
2017-02-27T00:17:13.051Z,0
2017-02-27T00:18:22.133Z,0
2017-02-27T00:19:31.622Z,0
2017-02-27T00:20:41.472Z,0
2017-02-27T00:21:50.942Z,0
2017-02-27T00:23:00.818Z,0
2017-02-27T00:24:10.307Z,0
2017-02-27T00:25:20.154Z,0
2017-02-27T00:26:30.024Z,0
2017-02-27T00:27:39.113Z,0
2017-02-27T00:28:48.963Z,0
2017-02-27T00:29:58.815Z,0
2017-02-27T00:31:08.296Z,0
2017-02-27T00:32:18.553Z,0
2017-02-27T00:33:28.407Z,0
2017-02-27T00:34:37.536Z,0
2017-02-27T00:35:46.996Z,0
2017-02-27T00:36:56.858Z,0
2017-02-27T00:38:05.551Z,0
2017-02-27T00:39:15.785Z,0
2017-02-27T00:40:25.278Z,0
2017-02-27T00:41:35.533Z,0
2017-02-27T00:42:44.638Z,0
2017-02-27T00:43:54.117Z,0
2017-02-27T00:45:03.604Z,0
2017-02-27T00:46:13.831Z,0
2017-02-27T00:47:23.707Z,0
2017-02-27T00:48:33.168Z,0
2017-02-27T00:49:42.266Z,0
2017-02-27T00:50:52.121Z,0
2017-02-27T00:52:01.987Z,0
2017-02-27T00:53:11.454Z,0
2017-02-27T00:54:20.937Z,0
2017-02-27T00:55:30.418Z,0
2017-02-27T00:56:39.505Z,0
2017-02-27T00:57:48.968Z,0
2017-02-27T00:58:58.821Z,0
2017-02-27T01:00:08.294Z,0
2017-02-27T01:01:18.909Z,0
2017-02-27T01:02:28.461Z,0
2017-02-27T01:03:38.299Z,0
2017-02-27T01:04:47.023Z,0
2017-02-27T01:05:56.504Z,0
2017-02-27T01:07:05.968Z,0
2017-02-27T01:08:15.835Z,0
2017-02-27T01:09:25.690Z,0
2017-02-27T01:10:35.924Z,0
2017-02-27T01:11:45.391Z,0
2017-02-27T01:12:54.871Z,0
2017-02-27T01:14:03.574Z,0
2017-02-27T01:15:13.056Z,0
2017-02-27T01:16:22.917Z,0
2017-02-27T01:17:32.008Z,0
2017-02-27T01:18:41.102Z,0
2017-02-27T01:19:50.560Z,0
2017-02-27T01:20:59.657Z,0
2017-02-27T01:22:08.749Z,0
2017-02-27T01:23:18.624Z,0
2017-02-27T01:24:27.723Z,0
2017-02-27T01:25:37.210Z,0
2017-02-27T01:26:45.930Z,0
2017-02-27T01:27:55.412Z,0
2017-02-27T01:29:04.877Z,0
2017-02-27T01:30:14.348Z,0
2017-02-27T01:31:23.436Z,0
2017-02-27T01:32:33.309Z,0
2017-02-27T01:33:42.777Z,0
2017-02-27T01:34:51.472Z,0
2017-02-27T01:52:43.897Z,0
2017-02-27T01:53:53.016Z,0
2017-02-27T01:55:02.870Z,0
2017-02-27T01:56:12.353Z,0
2017-02-27T01:57:21.841Z,0
2017-02-27T01:58:31.331Z,0
2017-02-27T01:59:41.177Z,0
2017-02-27T02:00:51.038Z,0
2017-02-27T02:02:00.891Z,0
2017-02-27T02:03:11.522Z,0
2017-02-27T02:04:22.183Z,0
2017-02-27T02:05:31.662Z,0
2017-02-27T02:06:40.749Z,0
2017-02-27T02:07:49.828Z,0
2017-02-27T02:08:59.682Z,0
2017-02-27T02:10:08.410Z,0
2017-02-27T02:11:17.888Z,0
2017-02-27T02:12:26.995Z,0
2017-02-27T02:13:36.854Z,0
2017-02-27T02:14:45.929Z,0
2017-02-27T02:15:55.797Z,0
2017-02-27T02:17:05.256Z,0
2017-02-27T02:18:15.126Z,0
2017-02-27T02:19:24.623Z,0
2017-02-27T02:20:33.338Z,0
2017-02-27T02:21:42.817Z,0
2017-02-27T02:22:53.054Z,0
2017-02-27T02:24:02.538Z,0
2017-02-27T02:25:12.015Z,0
2017-02-27T02:26:22.269Z,0
2017-02-27T02:27:30.976Z,0
2017-02-27T02:28:40.834Z,0
2017-02-27T02:29:49.932Z,0
2017-02-27T02:30:59.414Z,0
2017-02-27T02:32:08.893Z,0
2017-02-27T02:33:17.977Z,0
2017-02-27T02:34:27.448Z,0
2017-02-27T02:35:36.936Z,0
2017-02-27T02:36:46.021Z,0
2017-02-27T02:37:55.921Z,0
2017-02-27T02:39:06.153Z,0
2017-02-27T02:40:15.613Z,0
2017-02-27T02:41:25.503Z,0
2017-02-27T02:42:34.613Z,0
2017-02-27T02:43:43.712Z,0
2017-02-27T02:44:53.964Z,0
2017-02-27T02:46:03.425Z,0
2017-02-27T02:47:12.915Z,0
2017-02-27T02:48:22.778Z,0
2017-02-27T02:49:32.252Z,0
2017-02-27T02:50:41.705Z,0
2017-02-27T02:51:51.184Z,0
2017-02-27T02:53:01.427Z,0
2017-02-27T02:54:10.916Z,0
2017-02-27T02:55:20.381Z,0
2017-02-27T02:56:29.470Z,0
2017-02-27T02:57:38.936Z,0
2017-02-27T02:58:49.169Z,0
2017-02-27T02:59:59.422Z,0
2017-02-27T03:01:09.312Z,0
2017-02-27T03:02:18.795Z,0
2017-02-27T03:03:29.105Z,0
2017-02-27T03:04:39.015Z,0
2017-02-27T03:05:48.484Z,0
2017-02-27T03:06:57.599Z,0
2017-02-27T03:08:07.072Z,0
2017-02-27T03:09:16.536Z,0
2017-02-27T03:10:26.765Z,0
2017-02-27T03:11:36.632Z,0
2017-02-27T03:12:45.730Z,0
2017-02-27T03:13:54.819Z,0
2017-02-27T03:15:03.922Z,0
2017-02-27T03:16:13.396Z,0
2017-02-27T03:17:22.487Z,0
2017-02-27T03:18:31.965Z,0
2017-02-27T03:19:41.066Z,0
2017-02-27T03:20:49.788Z,0
2017-02-27T03:21:59.260Z,0
2017-02-27T03:23:09.123Z,0
2017-02-27T03:24:18.989Z,0
2017-02-27T03:25:28.837Z,0
2017-02-27T03:26:38.707Z,0
2017-02-27T03:27:48.224Z,0
2017-02-27T03:28:57.409Z,0
2017-02-27T03:30:06.638Z,0
2017-02-27T03:31:15.352Z,0
2017-02-27T03:32:24.827Z,0
2017-02-27T03:33:34.688Z,0
2017-02-27T03:34:44.921Z,0
2017-02-27T03:35:54.035Z,0
2017-02-27T03:37:03.499Z,0
2017-02-27T03:38:13.379Z,0
2017-02-27T03:39:22.095Z,0
2017-02-27T03:40:31.995Z,0
2017-02-27T03:41:41.086Z,0
2017-02-27T03:42:50.933Z,0
2017-02-27T03:44:00.029Z,0
2017-02-27T03:45:08.764Z,0
2017-02-27T03:46:17.848Z,0
2017-02-27T03:47:27.324Z,0
2017-02-27T03:48:36.829Z,0
2017-02-27T03:49:46.694Z,0
2017-02-27T03:50:56.578Z,0
2017-02-27T03:52:05.657Z,0
2017-02-27T03:53:14.761Z,0
2017-02-27T03:54:23.844Z,0
2017-02-27T03:55:33.688Z,0
2017-02-27T03:56:43.147Z,0
2017-02-27T03:57:53.023Z,0
2017-02-27T03:59:02.887Z,0
2017-02-27T04:00:12.346Z,0
2017-02-27T04:01:21.436Z,0
2017-02-27T04:02:31.692Z,0
2017-02-27T04:03:41.187Z,0
2017-02-27T04:04:50.314Z,0
2017-02-27T04:05:59.783Z,0
2017-02-27T04:07:08.905Z,0
2017-02-27T04:08:26.392Z,0
2017-02-27T04:09:45.669Z,0
2017-02-27T04:11:04.998Z,0
2017-02-27T04:12:26.870Z,0
2017-02-27T04:13:35.968Z,0
2017-02-27T04:14:47.348Z,0
2017-02-27T04:16:02.537Z,0
2017-02-27T04:17:12.622Z,0
2017-02-27T04:18:23.213Z,0
2017-02-27T04:19:31.940Z,0
2017-02-27T04:20:41.820Z,0
2017-02-27T04:21:51.676Z,0
2017-02-27T04:23:01.168Z,0
2017-02-27T04:24:11.062Z,0
2017-02-27T04:25:20.166Z,0
2017-02-27T04:26:29.643Z,0
2017-02-27T04:27:39.126Z,0
2017-02-27T04:28:48.980Z,0
2017-02-27T04:29:58.466Z,0
2017-02-27T04:31:07.553Z,0
2017-02-27T04:32:17.781Z,0
2017-02-27T04:33:27.256Z,0
2017-02-27T04:34:36.765Z,0
2017-02-27T04:35:46.234Z,0
2017-02-27T04:36:55.702Z,0
2017-02-27T04:38:05.188Z,0
2017-02-27T04:39:15.452Z,0
2017-02-27T04:40:26.071Z,0
2017-02-27T04:41:35.927Z,0
2017-02-27T04:42:45.420Z,0
2017-02-27T04:43:55.284Z,0
2017-02-27T04:45:04.356Z,0
2017-02-27T04:46:13.847Z,0
2017-02-27T04:47:24.109Z,0
2017-02-27T04:48:33.613Z,0
2017-02-27T04:49:42.322Z,0
2017-02-27T04:50:52.559Z,0
2017-02-27T04:52:02.034Z,0
2017-02-27T04:53:11.873Z,0
2017-02-27T04:54:20.957Z,0
2017-02-27T04:55:30.068Z,0
2017-02-27T04:56:39.535Z,0
2017-02-27T04:57:49.401Z,0
2017-02-27T04:58:58.867Z,0
2017-02-27T05:00:09.098Z,0
2017-02-27T05:01:19.316Z,0
2017-02-27T05:02:29.179Z,0
2017-02-27T05:03:39.022Z,0
2017-02-27T05:04:49.254Z,0
2017-02-27T05:05:58.354Z,0
2017-02-27T05:07:07.844Z,0
2017-02-27T05:08:17.326Z,0
2017-02-27T05:09:26.424Z,0
2017-02-27T05:10:35.498Z,0
2017-02-27T05:11:45.739Z,0
2017-02-27T05:12:55.627Z,0
2017-02-27T05:14:05.485Z,0
2017-02-27T05:15:15.717Z,0
2017-02-27T05:16:25.596Z,0
2017-02-27T05:17:35.078Z,0
2017-02-27T05:18:44.168Z,0
2017-02-27T05:19:53.650Z,0
2017-02-27T05:21:03.520Z,0
2017-02-27T05:22:13.378Z,0
2017-02-27T05:23:22.836Z,0
2017-02-27T05:24:31.551Z,0
2017-02-27T05:25:40.646Z,0
2017-02-27T05:26:50.133Z,0
2017-02-27T05:28:00.031Z,0
2017-02-27T05:29:09.535Z,0
2017-02-27T05:30:19.014Z,0
2017-02-27T05:31:28.499Z,0
2017-02-27T05:32:37.602Z,0
2017-02-27T05:33:46.703Z,0
2017-02-27T05:34:56.200Z,0
2017-02-27T05:36:04.911Z,0
2017-02-27T05:37:14.779Z,0
2017-02-27T05:38:23.519Z,0
2017-02-27T05:39:32.994Z,0
2017-02-27T05:40:42.520Z,0
2017-02-27T05:41:52.364Z,0
2017-02-27T05:43:01.469Z,0
2017-02-27T05:44:10.933Z,0
2017-02-27T05:45:20.791Z,0
2017-02-27T05:46:31.396Z,0
2017-02-27T05:47:41.240Z,0
2017-02-27T05:48:50.691Z,0
2017-02-27T05:50:00.169Z,0
2017-02-27T05:51:09.652Z,0
2017-02-27T05:52:19.124Z,0
2017-02-27T05:53:29.392Z,0
2017-02-27T05:54:38.499Z,0
2017-02-27T05:55:47.204Z,0
2017-02-27T05:56:55.911Z,0
2017-02-27T05:58:05.764Z,0
2017-02-27T05:59:15.610Z,0
2017-02-27T06:00:24.715Z,0
2017-02-27T06:01:34.617Z,0
2017-02-27T06:02:44.487Z,0
2017-02-27T06:03:53.952Z,0
2017-02-27T06:05:03.053Z,0
2017-02-27T06:06:13.282Z,0
2017-02-27T06:07:22.369Z,0
2017-02-27T06:08:31.855Z,0
2017-02-27T06:09:40.953Z,0
2017-02-27T06:10:50.823Z,0
2017-02-27T06:12:00.312Z,0
2017-02-27T06:13:09.789Z,0
2017-02-27T06:14:19.643Z,0
2017-02-27T06:15:29.881Z,0
2017-02-27T06:16:39.388Z,0
2017-02-27T06:17:48.485Z,0
2017-02-27T06:18:57.988Z,0
2017-02-27T06:20:07.473Z,0
2017-02-27T06:21:16.939Z,5
2017-02-27T06:22:26.016Z,5
2017-02-27T06:23:34.718Z,5
2017-02-27T06:24:44.216Z,5
2017-02-27T06:25:54.463Z,5
2017-02-27T06:27:03.572Z,10
2017-02-27T06:28:13.437Z,10
2017-02-27T06:29:23.302Z,10
2017-02-27T06:30:32.779Z,10
2017-02-27T06:31:42.250Z,10
2017-02-27T06:32:51.356Z,15
2017-02-27T06:34:00.834Z,20
2017-02-27T06:35:10.708Z,20
2017-02-27T06:36:19.800Z,25
2017-02-27T06:37:28.884Z,25
2017-02-27T06:38:38.735Z,30
2017-02-27T06:39:48.584Z,30
2017-02-27T06:40:58.056Z,30
2017-02-27T06:42:08.312Z,35
2017-02-27T06:43:17.806Z,35
2017-02-27T06:44:27.664Z,40
2017-02-27T06:45:37.551Z,40
2017-02-27T06:46:47.403Z,45
2017-02-27T06:47:57.247Z,50
2017-02-27T06:49:07.097Z,55
2017-02-27T06:50:16.980Z,55
2017-02-27T06:51:25.687Z,55
2017-02-27T06:52:35.929Z,60
2017-02-27T06:53:45.390Z,70
2017-02-27T06:54:55.640Z,70
2017-02-27T06:56:04.745Z,70
2017-02-27T06:57:14.980Z,75
2017-02-27T06:58:24.066Z,75
2017-02-27T06:59:33.542Z,80
2017-02-27T07:00:42.637Z,80
2017-02-27T07:01:52.516Z,85
2017-02-27T07:03:01.605Z,90
2017-02-27T07:04:11.092Z,95
2017-02-27T07:05:20.197Z,95
2017-02-27T07:06:29.683Z,95
2017-02-27T07:07:38.392Z,100
2017-02-27T07:08:48.233Z,105
2017-02-27T07:09:58.075Z,100
2017-02-27T07:11:07.930Z,95
2017-02-27T07:12:17.022Z,90
2017-02-27T07:13:26.513Z,85
2017-02-27T07:14:36.376Z,90
2017-02-27T07:15:45.465Z,90
2017-02-27T07:16:54.930Z,90
2017-02-27T07:18:04.410Z,95
2017-02-27T07:19:14.296Z,85
2017-02-27T07:20:24.154Z,85
2017-02-27T07:21:33.644Z,95
2017-02-27T07:22:43.123Z,100
2017-02-27T07:23:52.216Z,100
2017-02-27T07:25:02.474Z,110
2017-02-27T07:26:11.569Z,130
2017-02-27T07:27:21.027Z,150
2017-02-27T07:28:30.496Z,155
2017-02-27T07:29:40.353Z,155
2017-02-27T07:30:49.820Z,160
2017-02-27T07:31:59.310Z,165
2017-02-27T07:33:09.182Z,170
2017-02-27T07:34:19.033Z,165
2017-02-27T07:35:27.768Z,170
2017-02-27T07:36:37.234Z,175
2017-02-27T07:37:45.940Z,180
2017-02-27T07:38:55.042Z,170
2017-02-27T07:40:04.138Z,180
2017-02-27T07:41:14.372Z,190
2017-02-27T07:42:23.469Z,190
2017-02-27T07:43:32.552Z,170
2017-02-27T07:44:42.027Z,170
2017-02-27T07:45:52.283Z,195
2017-02-27T07:47:02.147Z,210
2017-02-27T07:48:11.260Z,180
2017-02-27T07:49:20.746Z,150
2017-02-27T07:50:29.836Z,170
2017-02-27T07:51:38.909Z,240
2017-02-27T07:52:48.491Z,235
2017-02-27T07:53:57.964Z,205
2017-02-27T07:55:07.837Z,165
2017-02-27T07:56:16.949Z,205
2017-02-27T07:57:26.814Z,265
2017-02-27T07:58:35.521Z,275
2017-02-27T07:59:44.610Z,280
2017-02-27T08:00:54.457Z,265
2017-02-27T08:02:04.326Z,245
2017-02-27T08:03:13.798Z,275
2017-02-27T08:04:22.495Z,255
2017-02-27T08:05:31.962Z,225
2017-02-27T08:06:41.826Z,210
2017-02-27T08:07:51.691Z,210
2017-02-27T08:09:01.165Z,200
2017-02-27T08:10:11.019Z,140
2017-02-27T08:11:20.481Z,115
2017-02-27T08:12:30.343Z,120
2017-02-27T08:13:40.188Z,135
2017-02-27T08:14:50.050Z,175
2017-02-27T08:15:59.533Z,200
2017-02-27T08:17:08.621Z,230
2017-02-27T08:18:18.096Z,240
2017-02-27T08:19:26.800Z,225
2017-02-27T08:20:36.267Z,190
2017-02-27T08:21:45.736Z,160
2017-02-27T08:22:55.214Z,175
2017-02-27T08:24:04.669Z,225
2017-02-27T08:25:14.148Z,295
2017-02-27T08:26:24.030Z,345
2017-02-27T08:27:33.494Z,385
2017-02-27T08:28:43.359Z,370
2017-02-27T08:29:52.839Z,400
2017-02-27T08:31:02.708Z,420
2017-02-27T08:32:11.787Z,450
2017-02-27T08:33:22.071Z,455
2017-02-27T08:34:32.321Z,470
2017-02-27T08:35:42.558Z,460
2017-02-27T08:36:52.038Z,450
2017-02-27T08:38:01.523Z,470
2017-02-27T08:39:11.397Z,485
2017-02-27T08:40:21.253Z,465
2017-02-27T08:41:31.128Z,445
2017-02-27T08:42:40.245Z,490
2017-02-27T08:43:50.489Z,435
2017-02-27T08:45:00.726Z,415
2017-02-27T08:46:10.193Z,420
2017-02-27T08:47:20.042Z,455
2017-02-27T08:48:29.525Z,480
2017-02-27T08:49:38.992Z,420
2017-02-27T08:50:48.462Z,365
2017-02-27T08:51:57.192Z,375
2017-02-27T08:53:07.437Z,340
2017-02-27T08:54:16.545Z,305
2017-02-27T08:55:26.808Z,320
2017-02-27T08:56:36.291Z,335
2017-02-27T08:57:45.773Z,275
2017-02-27T08:58:54.889Z,240
2017-02-27T09:00:03.975Z,310
2017-02-27T09:01:13.457Z,360
2017-02-27T09:02:22.218Z,355
2017-02-27T09:03:32.110Z,380
2017-02-27T09:04:41.966Z,375
2017-02-27T09:05:52.587Z,325
2017-02-27T09:07:02.814Z,295
2017-02-27T09:08:12.666Z,275
2017-02-27T09:09:21.772Z,245
2017-02-27T09:10:31.242Z,240
2017-02-27T09:11:41.881Z,235
2017-02-27T09:12:51.733Z,235
2017-02-27T09:14:01.611Z,250
2017-02-27T09:15:11.097Z,265
2017-02-27T09:16:19.827Z,270
2017-02-27T09:17:30.074Z,260
2017-02-27T09:18:39.562Z,265
2017-02-27T09:19:49.802Z,300
2017-02-27T09:20:59.664Z,315
2017-02-27T09:22:08.764Z,300
2017-02-27T09:23:18.247Z,260
2017-02-27T09:24:28.096Z,260
2017-02-27T09:25:37.188Z,270
2017-02-27T09:26:53.892Z,290
2017-02-27T09:28:02.992Z,325
2017-02-27T09:29:12.861Z,300
2017-02-27T09:30:21.979Z,285
2017-02-27T09:31:31.843Z,275
2017-02-27T09:32:40.565Z,325
2017-02-27T09:33:49.672Z,340
2017-02-27T09:35:00.302Z,335
2017-02-27T09:36:10.187Z,335
2017-02-27T09:37:19.277Z,395
2017-02-27T09:38:29.149Z,400
2017-02-27T09:39:38.260Z,415
2017-02-27T09:40:47.722Z,1120
2017-02-27T09:41:56.854Z,980
2017-02-27T09:43:06.716Z,375
2017-02-27T09:44:15.806Z,335
2017-02-27T09:45:25.710Z,325
2017-02-27T09:46:35.950Z,335
2017-02-27T09:47:45.668Z,330
2017-02-27T09:48:55.136Z,395
2017-02-27T09:50:04.595Z,475
2017-02-27T09:51:14.469Z,510
2017-02-27T09:52:23.177Z,510
2017-02-27T09:53:32.650Z,560
2017-02-27T09:54:42.508Z,525
2017-02-27T09:55:51.990Z,465
2017-02-27T09:57:02.248Z,535
2017-02-27T09:58:11.725Z,610
2017-02-27T09:59:20.440Z,645
2017-02-27T10:00:29.939Z,615
2017-02-27T10:01:39.801Z,610
2017-02-27T10:02:50.034Z,545
2017-02-27T10:03:59.524Z,535
2017-02-27T10:05:09.391Z,530
2017-02-27T10:06:19.258Z,545
2017-02-27T10:07:29.116Z,590
2017-02-27T10:08:38.602Z,580
2017-02-27T10:09:48.852Z,590
2017-02-27T10:10:58.319Z,495
2017-02-27T10:12:07.427Z,495
2017-02-27T10:13:17.667Z,435
2017-02-27T10:14:27.527Z,390
2017-02-27T10:15:36.630Z,355
2017-02-27T10:16:46.130Z,355
2017-02-27T10:17:56.007Z,345
2017-02-27T10:19:05.878Z,315
2017-02-27T10:20:15.751Z,290
2017-02-27T10:21:25.595Z,275
2017-02-27T10:22:34.702Z,295
2017-02-27T10:23:44.167Z,310
2017-02-27T10:24:54.406Z,305
2017-02-27T10:26:03.523Z,305
2017-02-27T10:27:13.375Z,290
2017-02-27T10:28:22.868Z,250
2017-02-27T10:29:33.498Z,250
2017-02-27T10:30:42.597Z,270
2017-02-27T10:31:52.501Z,270
2017-02-27T10:33:02.396Z,260
2017-02-27T10:34:11.882Z,285
2017-02-27T10:35:20.978Z,270
2017-02-27T10:36:30.823Z,245
2017-02-27T10:37:41.469Z,260
2017-02-27T10:38:51.719Z,240
2017-02-27T10:40:01.199Z,260
2017-02-27T10:41:10.290Z,250
2017-02-27T10:42:19.381Z,220
2017-02-27T10:43:28.496Z,230
2017-02-27T10:44:37.579Z,235
2017-02-27T10:45:47.077Z,255
2017-02-27T10:46:56.934Z,255
2017-02-27T10:48:06.402Z,235
2017-02-27T10:49:16.646Z,265
2017-02-27T10:50:26.136Z,330
2017-02-27T10:51:35.228Z,375
2017-02-27T10:52:45.095Z,340
2017-02-27T10:53:54.972Z,380
2017-02-27T10:55:05.617Z,355
2017-02-27T10:56:15.470Z,315
2017-02-27T10:57:25.347Z,305
2017-02-27T10:58:34.838Z,275
2017-02-27T10:59:44.722Z,355
2017-02-27T11:00:54.209Z,465
2017-02-27T11:02:03.687Z,430
2017-02-27T11:03:12.782Z,415
2017-02-27T11:04:22.635Z,390
2017-02-27T11:05:32.485Z,375
2017-02-27T11:06:42.353Z,360
2017-02-27T11:07:51.081Z,390
2017-02-27T11:09:00.947Z,405
2017-02-27T11:10:11.209Z,355
2017-02-27T11:11:19.917Z,315
2017-02-27T11:12:28.619Z,310
2017-02-27T11:13:37.708Z,270
2017-02-27T11:14:47.190Z,245
2017-02-27T11:15:57.082Z,220
2017-02-27T11:17:06.945Z,230
2017-02-27T11:18:16.421Z,230
2017-02-27T11:19:25.892Z,205
2017-02-27T11:20:35.754Z,210
2017-02-27T11:21:46.053Z,235
2017-02-27T11:22:55.166Z,275
2017-02-27T11:24:05.039Z,290
2017-02-27T11:25:15.285Z,300
2017-02-27T11:26:24.418Z,285
2017-02-27T11:27:33.897Z,295
2017-02-27T11:28:43.767Z,280
2017-02-27T11:29:53.243Z,305
2017-02-27T11:31:03.134Z,400
2017-02-27T11:32:12.240Z,590
2017-02-27T11:33:22.115Z,655
2017-02-27T11:34:31.618Z,625
2017-02-27T11:35:40.720Z,590
2017-02-27T11:36:49.822Z,525
2017-02-27T11:37:58.925Z,425
2017-02-27T11:39:08.421Z,340
2017-02-27T11:40:17.892Z,350
2017-02-27T11:41:27.752Z,420
2017-02-27T11:42:37.616Z,510
2017-02-27T11:43:47.132Z,515
2017-02-27T11:44:57.411Z,450
2017-02-27T11:46:06.905Z,415
2017-02-27T11:47:17.158Z,415
2017-02-27T11:48:26.640Z,395
2017-02-27T11:49:36.104Z,345
2017-02-27T11:50:45.572Z,285
2017-02-27T11:51:54.281Z,250
2017-02-27T11:53:03.359Z,270
2017-02-27T11:54:12.469Z,305
2017-02-27T11:55:22.711Z,360
2017-02-27T11:56:32.566Z,410
2017-02-27T11:57:42.435Z,375
2017-02-27T11:58:52.296Z,360
2017-02-27T12:00:01.425Z,375
2017-02-27T12:01:10.902Z,380
2017-02-27T12:02:20.763Z,360
2017-02-27T12:03:29.877Z,355
2017-02-27T12:04:39.733Z,375
2017-02-27T12:05:48.426Z,360
2017-02-27T12:06:58.692Z,375
2017-02-27T12:08:08.538Z,395
2017-02-27T12:09:18.024Z,405
2017-02-27T12:10:27.890Z,400
2017-02-27T12:11:38.147Z,350
2017-02-27T12:12:47.233Z,330
2017-02-27T12:13:56.710Z,310
2017-02-27T12:15:06.228Z,295
2017-02-27T12:16:16.104Z,285
2017-02-27T12:17:25.194Z,260
2017-02-27T12:18:34.679Z,230
2017-02-27T12:19:44.925Z,220
2017-02-27T12:20:54.409Z,245
2017-02-27T12:22:03.504Z,360
2017-02-27T12:23:12.585Z,410
2017-02-27T12:24:22.456Z,435
2017-02-27T12:25:32.315Z,420
2017-02-27T12:26:42.173Z,340
2017-02-27T12:27:52.021Z,295
2017-02-27T12:29:01.131Z,235
2017-02-27T12:30:11.385Z,225
2017-02-27T12:31:21.637Z,255
2017-02-27T12:32:30.363Z,280
2017-02-27T12:33:40.250Z,270
2017-02-27T12:34:50.092Z,255
2017-02-27T12:35:59.950Z,270
2017-02-27T12:37:09.807Z,275
2017-02-27T12:38:18.916Z,275
2017-02-27T12:39:28.028Z,250
2017-02-27T12:40:38.286Z,235
2017-02-27T12:41:48.910Z,225
2017-02-27T12:42:58.375Z,200
2017-02-27T12:44:07.472Z,245
2017-02-27T12:45:17.343Z,310
2017-02-27T12:46:26.820Z,345
2017-02-27T12:47:35.559Z,365
2017-02-27T12:48:45.413Z,360
2017-02-27T12:49:54.505Z,370
2017-02-27T12:51:03.215Z,330
2017-02-27T12:52:11.943Z,350
2017-02-27T12:53:22.179Z,370
2017-02-27T12:54:31.638Z,380
2017-02-27T12:55:41.127Z,395
2017-02-27T12:56:50.619Z,425
2017-02-27T12:58:00.112Z,445
2017-02-27T12:59:09.598Z,485
2017-02-27T13:00:18.710Z,440
2017-02-27T13:01:28.190Z,375
2017-02-27T13:02:36.898Z,370
2017-02-27T13:03:46.008Z,375
2017-02-27T13:04:55.879Z,365
2017-02-27T13:06:05.359Z,320
2017-02-27T13:07:15.612Z,290
2017-02-27T13:08:25.088Z,275
2017-02-27T13:09:34.578Z,275
2017-02-27T13:10:44.442Z,330
2017-02-27T13:11:53.913Z,430
2017-02-27T13:13:03.766Z,435
2017-02-27T13:14:13.998Z,375
2017-02-27T13:15:23.479Z,340
2017-02-27T13:16:32.593Z,365
2017-02-27T13:17:42.095Z,390
2017-02-27T13:18:51.964Z,405
2017-02-27T13:20:01.813Z,395
2017-02-27T13:21:12.444Z,440
2017-02-27T13:22:22.318Z,430
2017-02-27T13:23:31.424Z,380
2017-02-27T13:24:40.532Z,370
2017-02-27T13:25:49.630Z,390
2017-02-27T13:26:59.120Z,360
2017-02-27T13:28:08.611Z,330
2017-02-27T13:29:18.473Z,350
2017-02-27T13:30:27.585Z,330
2017-02-27T13:31:37.097Z,315
2017-02-27T13:32:46.585Z,310
2017-02-27T13:33:56.468Z,305
2017-02-27T13:35:06.345Z,335
2017-02-27T13:36:16.191Z,360
2017-02-27T13:37:25.658Z,380
2017-02-27T13:38:35.138Z,420
2017-02-27T13:39:44.281Z,435
2017-02-27T13:40:53.764Z,400
2017-02-27T13:42:04.388Z,370
2017-02-27T13:43:14.628Z,380
2017-02-27T13:44:23.731Z,390
2017-02-27T13:45:33.975Z,380
2017-02-27T13:46:43.480Z,365
2017-02-27T13:47:53.335Z,390
2017-02-27T13:49:03.214Z,430
2017-02-27T13:50:12.737Z,425
2017-02-27T13:51:22.239Z,395
2017-02-27T13:52:31.715Z,350
2017-02-27T13:53:41.602Z,300
2017-02-27T13:54:51.459Z,255
2017-02-27T13:56:01.346Z,235
2017-02-27T13:57:10.457Z,230
2017-02-27T13:58:19.976Z,250
2017-02-27T13:59:29.850Z,295
2017-02-27T14:00:39.724Z,320
2017-02-27T14:01:49.974Z,365
2017-02-27T14:02:59.442Z,420
2017-02-27T14:04:08.933Z,395
2017-02-27T14:05:18.412Z,440
2017-02-27T14:06:27.509Z,540
2017-02-27T14:07:36.609Z,495
2017-02-27T14:08:45.699Z,420
2017-02-27T14:09:55.228Z,360
2017-02-27T14:11:04.319Z,360
2017-02-27T14:12:14.178Z,345
2017-02-27T14:13:24.067Z,340
2017-02-27T14:14:33.933Z,435
2017-02-27T14:15:43.778Z,535
2017-02-27T14:16:54.025Z,565
2017-02-27T14:18:03.115Z,520
2017-02-27T14:19:13.369Z,455
2017-02-27T14:20:22.464Z,490
2017-02-27T14:21:32.731Z,450
2017-02-27T14:22:43.013Z,345
2017-02-27T14:23:52.914Z,320
2017-02-27T14:25:02.777Z,265
2017-02-27T14:26:11.863Z,270
2017-02-27T14:27:22.171Z,320
2017-02-27T14:28:31.632Z,310
2017-02-27T14:29:40.717Z,205
2017-02-27T14:30:50.568Z,160
2017-02-27T14:32:00.043Z,155
2017-02-27T14:33:09.162Z,190
2017-02-27T14:34:18.648Z,205
2017-02-27T14:35:28.134Z,195
2017-02-27T14:36:37.220Z,210
2017-02-27T14:37:47.116Z,195
2017-02-27T14:38:56.605Z,160
2017-02-27T14:40:06.480Z,175
2017-02-27T14:41:15.971Z,210
2017-02-27T14:42:25.052Z,190
2017-02-27T14:43:33.752Z,190
2017-02-27T14:44:43.609Z,240
2017-02-27T14:45:52.713Z,285
2017-02-27T14:47:02.196Z,250
2017-02-27T14:48:11.693Z,200
2017-02-27T14:49:20.791Z,210
2017-02-27T14:50:30.646Z,200
2017-02-27T14:51:40.128Z,200
2017-02-27T14:52:50.378Z,185
2017-02-27T14:54:00.628Z,125
2017-02-27T14:55:10.871Z,105
2017-02-27T14:56:21.115Z,105
2017-02-27T14:57:30.220Z,105
2017-02-27T14:58:39.335Z,100
2017-02-27T14:59:49.190Z,100
2017-02-27T15:00:58.680Z,120
2017-02-27T15:02:08.171Z,130
2017-02-27T15:03:18.049Z,120
2017-02-27T15:04:27.508Z,130
2017-02-27T15:05:36.980Z,120
2017-02-27T15:06:46.074Z,105
2017-02-27T15:07:56.700Z,85
2017-02-27T15:09:06.927Z,60
2017-02-27T15:10:16.055Z,50
2017-02-27T15:11:25.146Z,45
2017-02-27T15:12:33.859Z,50
2017-02-27T15:13:44.118Z,65
2017-02-27T15:14:53.228Z,70
2017-02-27T15:16:02.335Z,70
2017-02-27T15:17:12.567Z,60
2017-02-27T15:18:22.050Z,60
2017-02-27T15:19:31.137Z,60
2017-02-27T15:20:41.380Z,60
2017-02-27T15:21:50.868Z,60
2017-02-27T15:23:01.123Z,65
2017-02-27T15:24:10.601Z,70
2017-02-27T15:25:20.085Z,70
2017-02-27T15:26:29.931Z,75
2017-02-27T15:27:39.060Z,100
2017-02-27T15:28:48.550Z,95
2017-02-27T15:29:59.182Z,60
2017-02-27T15:31:08.656Z,40
2017-02-27T15:32:18.515Z,40
2017-02-27T15:33:27.591Z,40
2017-02-27T15:34:37.869Z,50
2017-02-27T15:35:46.967Z,60
2017-02-27T15:36:56.081Z,65
2017-02-27T15:38:05.563Z,50
2017-02-27T15:39:14.281Z,40
2017-02-27T15:40:24.150Z,40
2017-02-27T15:41:33.636Z,50
2017-02-27T15:42:43.491Z,45
2017-02-27T15:43:53.354Z,40
2017-02-27T15:45:02.833Z,45
2017-02-27T15:46:13.089Z,50
2017-02-27T15:47:22.173Z,50
2017-02-27T15:48:31.264Z,45
2017-02-27T15:49:40.346Z,40
2017-02-27T15:50:49.837Z,40
2017-02-27T15:51:59.686Z,40
2017-02-27T15:53:09.154Z,40
2017-02-27T15:54:19.034Z,40
2017-02-27T15:55:28.514Z,45
2017-02-27T15:56:38.017Z,45
2017-02-27T15:57:48.247Z,35
2017-02-27T15:58:57.345Z,30
2017-02-27T16:00:07.207Z,30
2017-02-27T16:01:17.076Z,45
2017-02-27T16:02:26.930Z,50
2017-02-27T16:03:36.387Z,40
2017-02-27T16:04:45.494Z,35
2017-02-27T16:05:54.618Z,30
2017-02-27T16:07:04.867Z,30
2017-02-27T16:08:14.344Z,30
2017-02-27T16:09:23.822Z,20
2017-02-27T16:10:33.699Z,15
2017-02-27T16:11:43.187Z,15
2017-02-27T16:12:52.667Z,10
2017-02-27T16:14:02.147Z,5
2017-02-27T16:15:12.003Z,0
2017-02-27T16:16:21.859Z,5
2017-02-27T16:17:32.093Z,5
2017-02-27T16:18:41.554Z,5
2017-02-27T16:19:50.273Z,5
2017-02-27T16:20:59.748Z,10
2017-02-27T16:22:09.622Z,10
2017-02-27T16:23:19.881Z,10
2017-02-27T16:24:30.113Z,10
2017-02-27T16:25:40.360Z,5
2017-02-27T16:26:49.862Z,10
2017-02-27T16:27:58.939Z,15
2017-02-27T16:29:08.424Z,15
2017-02-27T16:30:17.129Z,20
2017-02-27T16:31:26.988Z,20
2017-02-27T16:32:36.829Z,20
2017-02-27T16:33:46.673Z,20
2017-02-27T16:34:55.772Z,20
2017-02-27T16:36:04.867Z,20
2017-02-27T16:37:14.724Z,20
2017-02-27T16:38:24.194Z,30
2017-02-27T16:39:33.669Z,30
2017-02-27T16:40:43.526Z,25
2017-02-27T16:41:53.383Z,20
2017-02-27T16:43:02.480Z,15
2017-02-27T16:44:12.715Z,10
2017-02-27T16:45:23.330Z,5
2017-02-27T16:46:32.804Z,5